sensor_id;sensor_type;location;lat;lon;timestamp;P1;durP1;ratioP1;P2;durP2;ratioP2
9224;SDS011;4647;48.072;11.616;2023-05-07T00:00:26;9.23;;;8.40;;
9224;SDS011;4647;48.072;11.616;2023-05-07T00:02:56;9.10;;;8.23;;
9224;SDS011;4647;48.072;11.616;2023-05-07T00:05:24;14.23;;;10.10;;
9224;SDS011;4647;48.072;11.616;2023-05-07T00:07:53;9.83;;;8.97;;
9224;SDS011;4647;48.072;11.616;2023-05-07T00:10:21;9.97;;;8.93;;
9224;SDS011;4647;48.072;11.616;2023-05-07T00:12:50;9.13;;;8.30;;
9224;SDS011;4647;48.072;11.616;2023-05-07T00:15:19;9.47;;;8.57;;
9224;SDS011;4647;48.072;11.616;2023-05-07T00:17:50;9.17;;;8.17;;
9224;SDS011;4647;48.072;11.616;2023-05-07T00:20:19;10.27;;;8.43;;
9224;SDS011;4647;48.072;11.616;2023-05-07T00:22:47;9.87;;;8.90;;
9224;SDS011;4647;48.072;11.616;2023-05-07T00:25:16;9.93;;;8.77;;
9224;SDS011;4647;48.072;11.616;2023-05-07T00:27:44;10.13;;;8.60;;
9224;SDS011;4647;48.072;11.616;2023-05-07T00:30:13;9.50;;;8.63;;
9224;SDS011;4647;48.072;11.616;2023-05-07T00:32:42;10.73;;;9.63;;
9224;SDS011;4647;48.072;11.616;2023-05-07T00:35:16;10.90;;;9.90;;
9224;SDS011;4647;48.072;11.616;2023-05-07T00:37:45;9.87;;;8.87;;
9224;SDS011;4647;48.072;11.616;2023-05-07T00:40:14;7.97;;;7.27;;
9224;SDS011;4647;48.072;11.616;2023-05-07T00:42:42;10.13;;;8.83;;
9224;SDS011;4647;48.072;11.616;2023-05-07T00:45:12;8.97;;;8.07;;
9224;SDS011;4647;48.072;11.616;2023-05-07T00:47:40;10.13;;;9.37;;
9224;SDS011;4647;48.072;11.616;2023-05-07T00:50:09;10.77;;;9.77;;
9224;SDS011;4647;48.072;11.616;2023-05-07T00:52:41;8.80;;;7.90;;
9224;SDS011;4647;48.072;11.616;2023-05-07T00:55:09;8.80;;;8.00;;
9224;SDS011;4647;48.072;11.616;2023-05-07T00:57:41;10.13;;;9.10;;
9224;SDS011;4647;48.072;11.616;2023-05-07T01:00:10;9.63;;;8.67;;
9224;SDS011;4647;48.072;11.616;2023-05-07T01:02:39;9.03;;;8.13;;
9224;SDS011;4647;48.072;11.616;2023-05-07T01:05:09;9.13;;;8.33;;
9224;SDS011;4647;48.072;11.616;2023-05-07T01:07:44;10.53;;;9.43;;
9224;SDS011;4647;48.072;11.616;2023-05-07T01:10:13;10.60;;;9.60;;
9224;SDS011;4647;48.072;11.616;2023-05-07T01:12:42;9.53;;;8.63;;
9224;SDS011;4647;48.072;11.616;2023-05-07T01:15:12;10.50;;;8.33;;
9224;SDS011;4647;48.072;11.616;2023-05-07T01:17:42;8.87;;;8.00;;
9224;SDS011;4647;48.072;11.616;2023-05-07T01:20:11;9.23;;;8.43;;
9224;SDS011;4647;48.072;11.616;2023-05-07T01:22:43;9.13;;;8.33;;
9224;SDS011;4647;48.072;11.616;2023-05-07T01:25:12;8.33;;;7.53;;
9224;SDS011;4647;48.072;11.616;2023-05-07T01:27:41;8.27;;;7.53;;
9224;SDS011;4647;48.072;11.616;2023-05-07T01:30:10;8.63;;;7.73;;
9224;SDS011;4647;48.072;11.616;2023-05-07T01:32:40;10.43;;;9.17;;
9224;SDS011;4647;48.072;11.616;2023-05-07T01:35:15;11.03;;;9.00;;
9224;SDS011;4647;48.072;11.616;2023-05-07T01:37:50;11.23;;;8.53;;
9224;SDS011;4647;48.072;11.616;2023-05-07T01:40:19;8.77;;;7.97;;
9224;SDS011;4647;48.072;11.616;2023-05-07T01:42:48;8.00;;;7.20;;
9224;SDS011;4647;48.072;11.616;2023-05-07T01:45:16;8.50;;;7.70;;
9224;SDS011;4647;48.072;11.616;2023-05-07T01:47:45;9.00;;;8.10;;
9224;SDS011;4647;48.072;11.616;2023-05-07T01:50:14;8.27;;;7.23;;
9224;SDS011;4647;48.072;11.616;2023-05-07T01:52:46;9.43;;;8.53;;
9224;SDS011;4647;48.072;11.616;2023-05-07T01:55:18;8.77;;;7.83;;
9224;SDS011;4647;48.072;11.616;2023-05-07T01:57:47;9.97;;;9.03;;
9224;SDS011;4647;48.072;11.616;2023-05-07T02:00:15;9.77;;;8.97;;
9224;SDS011;4647;48.072;11.616;2023-05-07T02:02:44;11.50;;;9.17;;
9224;SDS011;4647;48.072;11.616;2023-05-07T02:05:13;11.30;;;8.30;;
9224;SDS011;4647;48.072;11.616;2023-05-07T02:07:42;7.83;;;7.13;;
9224;SDS011;4647;48.072;11.616;2023-05-07T02:10:10;8.30;;;7.20;;
9224;SDS011;4647;48.072;11.616;2023-05-07T02:12:41;7.97;;;7.33;;
9224;SDS011;4647;48.072;11.616;2023-05-07T02:15:10;8.57;;;7.77;;
9224;SDS011;4647;48.072;11.616;2023-05-07T02:20:28;8.73;;;7.83;;
9224;SDS011;4647;48.072;11.616;2023-05-07T02:22:57;7.27;;;6.50;;
9224;SDS011;4647;48.072;11.616;2023-05-07T02:25:25;8.37;;;7.40;;
9224;SDS011;4647;48.072;11.616;2023-05-07T02:27:56;8.17;;;7.10;;
9224;SDS011;4647;48.072;11.616;2023-05-07T02:30:25;8.10;;;7.40;;
9224;SDS011;4647;48.072;11.616;2023-05-07T02:32:54;9.17;;;8.23;;
9224;SDS011;4647;48.072;11.616;2023-05-07T02:35:23;8.67;;;7.77;;
9224;SDS011;4647;48.072;11.616;2023-05-07T02:37:52;9.00;;;7.90;;
9224;SDS011;4647;48.072;11.616;2023-05-07T02:40:21;8.57;;;7.67;;
9224;SDS011;4647;48.072;11.616;2023-05-07T02:42:49;7.03;;;6.07;;
9224;SDS011;4647;48.072;11.616;2023-05-07T02:45:20;6.33;;;5.73;;
9224;SDS011;4647;48.072;11.616;2023-05-07T02:47:49;8.63;;;7.73;;
9224;SDS011;4647;48.072;11.616;2023-05-07T02:50:18;10.07;;;9.07;;
9224;SDS011;4647;48.072;11.616;2023-05-07T02:52:46;8.80;;;7.10;;
9224;SDS011;4647;48.072;11.616;2023-05-07T02:55:15;7.53;;;6.80;;
9224;SDS011;4647;48.072;11.616;2023-05-07T02:57:44;8.40;;;6.83;;
9224;SDS011;4647;48.072;11.616;2023-05-07T03:00:13;8.10;;;7.23;;
9224;SDS011;4647;48.072;11.616;2023-05-07T03:02:46;7.83;;;6.87;;
9224;SDS011;4647;48.072;11.616;2023-05-07T03:05:17;9.23;;;8.03;;
9224;SDS011;4647;48.072;11.616;2023-05-07T03:07:45;8.10;;;7.30;;
9224;SDS011;4647;48.072;11.616;2023-05-07T03:10:14;8.33;;;7.10;;
9224;SDS011;4647;48.072;11.616;2023-05-07T03:12:43;10.47;;;6.70;;
9224;SDS011;4647;48.072;11.616;2023-05-07T03:15:15;7.50;;;6.87;;
9224;SDS011;4647;48.072;11.616;2023-05-07T03:17:46;8.13;;;7.33;;
9224;SDS011;4647;48.072;11.616;2023-05-07T03:20:15;8.03;;;7.23;;
9224;SDS011;4647;48.072;11.616;2023-05-07T03:22:44;7.30;;;6.53;;
9224;SDS011;4647;48.072;11.616;2023-05-07T03:25:13;7.00;;;6.37;;
9224;SDS011;4647;48.072;11.616;2023-05-07T03:27:42;8.10;;;7.23;;
9224;SDS011;4647;48.072;11.616;2023-05-07T03:30:11;9.23;;;7.67;;
9224;SDS011;4647;48.072;11.616;2023-05-07T03:32:40;7.93;;;7.23;;
9224;SDS011;4647;48.072;11.616;2023-05-07T03:35:11;13.43;;;9.23;;
9224;SDS011;4647;48.072;11.616;2023-05-07T03:37:40;7.63;;;6.37;;
9224;SDS011;4647;48.072;11.616;2023-05-07T03:40:09;10.80;;;7.70;;
9224;SDS011;4647;48.072;11.616;2023-05-07T03:42:38;8.97;;;8.07;;
9224;SDS011;4647;48.072;11.616;2023-05-07T03:45:07;8.93;;;7.97;;
9224;SDS011;4647;48.072;11.616;2023-05-07T03:47:36;8.93;;;7.17;;
9224;SDS011;4647;48.072;11.616;2023-05-07T03:50:05;9.00;;;8.17;;
9224;SDS011;4647;48.072;11.616;2023-05-07T03:52:38;8.17;;;7.47;;
9224;SDS011;4647;48.072;11.616;2023-05-07T03:55:06;7.57;;;6.87;;
9224;SDS011;4647;48.072;11.616;2023-05-07T03:57:36;9.73;;;7.50;;
9224;SDS011;4647;48.072;11.616;2023-05-07T04:00:05;8.43;;;7.63;;
9224;SDS011;4647;48.072;11.616;2023-05-07T04:02:34;8.13;;;7.33;;
9224;SDS011;4647;48.072;11.616;2023-05-07T04:05:05;6.87;;;6.00;;
9224;SDS011;4647;48.072;11.616;2023-05-07T04:07:34;7.23;;;6.63;;
9224;SDS011;4647;48.072;11.616;2023-05-07T04:10:06;6.97;;;6.33;;
9224;SDS011;4647;48.072;11.616;2023-05-07T04:12:35;7.87;;;7.27;;
9224;SDS011;4647;48.072;11.616;2023-05-07T04:15:06;7.70;;;7.00;;
9224;SDS011;4647;48.072;11.616;2023-05-07T04:17:35;7.63;;;6.87;;
9224;SDS011;4647;48.072;11.616;2023-05-07T04:20:05;7.83;;;7.13;;
9224;SDS011;4647;48.072;11.616;2023-05-07T04:22:34;7.27;;;6.60;;
9224;SDS011;4647;48.072;11.616;2023-05-07T04:25:06;7.47;;;6.80;;
9224;SDS011;4647;48.072;11.616;2023-05-07T04:27:39;7.10;;;6.40;;
9224;SDS011;4647;48.072;11.616;2023-05-07T04:30:08;6.73;;;5.80;;
9224;SDS011;4647;48.072;11.616;2023-05-07T04:32:38;6.37;;;5.80;;
9224;SDS011;4647;48.072;11.616;2023-05-07T04:35:06;7.17;;;6.33;;
9224;SDS011;4647;48.072;11.616;2023-05-07T04:37:35;5.97;;;5.37;;
9224;SDS011;4647;48.072;11.616;2023-05-07T04:40:07;6.10;;;5.50;;
9224;SDS011;4647;48.072;11.616;2023-05-07T04:42:36;6.27;;;5.70;;
9224;SDS011;4647;48.072;11.616;2023-05-07T04:45:05;5.90;;;5.30;;
9224;SDS011;4647;48.072;11.616;2023-05-07T04:47:35;6.47;;;4.73;;
9224;SDS011;4647;48.072;11.616;2023-05-07T04:50:04;5.50;;;5.00;;
9224;SDS011;4647;48.072;11.616;2023-05-07T04:52:33;5.07;;;4.57;;
9224;SDS011;4647;48.072;11.616;2023-05-07T04:55:02;5.20;;;4.63;;
9224;SDS011;4647;48.072;11.616;2023-05-07T04:57:34;5.03;;;4.20;;
9224;SDS011;4647;48.072;11.616;2023-05-07T05:00:04;5.73;;;4.60;;
9224;SDS011;4647;48.072;11.616;2023-05-07T05:02:34;7.27;;;4.47;;
9224;SDS011;4647;48.072;11.616;2023-05-07T05:05:03;5.23;;;4.70;;
9224;SDS011;4647;48.072;11.616;2023-05-07T05:07:32;7.47;;;4.60;;
9224;SDS011;4647;48.072;11.616;2023-05-07T05:10:01;5.13;;;4.63;;
9224;SDS011;4647;48.072;11.616;2023-05-07T05:12:30;4.97;;;4.57;;
9224;SDS011;4647;48.072;11.616;2023-05-07T05:15:03;4.80;;;4.30;;
9224;SDS011;4647;48.072;11.616;2023-05-07T05:17:32;4.20;;;3.80;;
9224;SDS011;4647;48.072;11.616;2023-05-07T05:20:02;4.70;;;3.60;;
9224;SDS011;4647;48.072;11.616;2023-05-07T05:22:31;3.97;;;3.67;;
9224;SDS011;4647;48.072;11.616;2023-05-07T05:25:00;4.57;;;3.60;;
9224;SDS011;4647;48.072;11.616;2023-05-07T05:27:29;4.53;;;3.40;;
9224;SDS011;4647;48.072;11.616;2023-05-07T05:30:00;3.50;;;3.20;;
9224;SDS011;4647;48.072;11.616;2023-05-07T05:32:28;3.47;;;3.17;;
9224;SDS011;4647;48.072;11.616;2023-05-07T05:34:57;3.60;;;3.30;;
9224;SDS011;4647;48.072;11.616;2023-05-07T05:37:25;3.97;;;3.10;;
9224;SDS011;4647;48.072;11.616;2023-05-07T05:39:55;3.40;;;3.10;;
9224;SDS011;4647;48.072;11.616;2023-05-07T05:42:23;3.50;;;3.20;;
9224;SDS011;4647;48.072;11.616;2023-05-07T05:44:52;3.80;;;3.43;;
9224;SDS011;4647;48.072;11.616;2023-05-07T05:47:23;7.47;;;4.00;;
9224;SDS011;4647;48.072;11.616;2023-05-07T05:49:51;4.97;;;3.70;;
9224;SDS011;4647;48.072;11.616;2023-05-07T05:52:20;6.47;;;3.27;;
9224;SDS011;4647;48.072;11.616;2023-05-07T05:54:48;4.73;;;4.00;;
9224;SDS011;4647;48.072;11.616;2023-05-07T05:57:17;4.87;;;4.00;;
9224;SDS011;4647;48.072;11.616;2023-05-07T05:59:46;6.13;;;4.03;;
9224;SDS011;4647;48.072;11.616;2023-05-07T06:02:15;8.23;;;5.20;;
9224;SDS011;4647;48.072;11.616;2023-05-07T06:04:46;5.90;;;4.23;;
9224;SDS011;4647;48.072;11.616;2023-05-07T06:07:15;5.83;;;4.60;;
9224;SDS011;4647;48.072;11.616;2023-05-07T06:09:43;6.30;;;4.53;;
9224;SDS011;4647;48.072;11.616;2023-05-07T06:12:12;5.93;;;4.60;;
9224;SDS011;4647;48.072;11.616;2023-05-07T06:14:42;4.30;;;3.90;;
9224;SDS011;4647;48.072;11.616;2023-05-07T06:17:10;5.03;;;4.20;;
9224;SDS011;4647;48.072;11.616;2023-05-07T06:19:39;5.30;;;4.30;;
9224;SDS011;4647;48.072;11.616;2023-05-07T06:22:10;6.53;;;4.00;;
9224;SDS011;4647;48.072;11.616;2023-05-07T06:24:38;7.80;;;4.03;;
9224;SDS011;4647;48.072;11.616;2023-05-07T06:27:07;4.07;;;3.67;;
9224;SDS011;4647;48.072;11.616;2023-05-07T06:29:35;6.30;;;3.80;;
9224;SDS011;4647;48.072;11.616;2023-05-07T06:32:07;5.03;;;3.93;;
9224;SDS011;4647;48.072;11.616;2023-05-07T06:34:36;5.10;;;3.50;;
9224;SDS011;4647;48.072;11.616;2023-05-07T06:37:05;6.13;;;3.80;;
9224;SDS011;4647;48.072;11.616;2023-05-07T06:39:37;4.23;;;3.70;;
9224;SDS011;4647;48.072;11.616;2023-05-07T06:42:05;3.80;;;3.13;;
9224;SDS011;4647;48.072;11.616;2023-05-07T06:44:34;5.27;;;3.20;;
9224;SDS011;4647;48.072;11.616;2023-05-07T06:47:02;4.50;;;3.77;;
9224;SDS011;4647;48.072;11.616;2023-05-07T06:49:31;5.43;;;4.03;;
9224;SDS011;4647;48.072;11.616;2023-05-07T06:51:59;4.10;;;3.67;;
9224;SDS011;4647;48.072;11.616;2023-05-07T06:54:28;5.17;;;3.60;;
9224;SDS011;4647;48.072;11.616;2023-05-07T06:56:59;4.93;;;3.77;;
9224;SDS011;4647;48.072;11.616;2023-05-07T06:59:28;4.93;;;3.43;;
9224;SDS011;4647;48.072;11.616;2023-05-07T07:01:56;8.13;;;3.87;;
9224;SDS011;4647;48.072;11.616;2023-05-07T07:04:25;3.77;;;3.00;;
9224;SDS011;4647;48.072;11.616;2023-05-07T07:06:54;4.33;;;3.60;;
9224;SDS011;4647;48.072;11.616;2023-05-07T07:09:22;4.17;;;3.10;;
9224;SDS011;4647;48.072;11.616;2023-05-07T07:11:51;4.13;;;3.37;;
9224;SDS011;4647;48.072;11.616;2023-05-07T07:14:22;3.90;;;3.40;;
9224;SDS011;4647;48.072;11.616;2023-05-07T07:16:51;4.67;;;3.63;;
9224;SDS011;4647;48.072;11.616;2023-05-07T07:19:19;5.47;;;3.37;;
9224;SDS011;4647;48.072;11.616;2023-05-07T07:21:48;6.17;;;3.50;;
9224;SDS011;4647;48.072;11.616;2023-05-07T07:24:16;3.93;;;3.30;;
9224;SDS011;4647;48.072;11.616;2023-05-07T07:26:46;5.80;;;2.90;;
9224;SDS011;4647;48.072;11.616;2023-05-07T07:29:14;4.37;;;3.43;;
9224;SDS011;4647;48.072;11.616;2023-05-07T07:31:47;6.07;;;3.87;;
9224;SDS011;4647;48.072;11.616;2023-05-07T07:34:16;3.97;;;3.37;;
9224;SDS011;4647;48.072;11.616;2023-05-07T07:36:44;3.63;;;2.90;;
9224;SDS011;4647;48.072;11.616;2023-05-07T07:39:12;6.90;;;3.20;;
9224;SDS011;4647;48.072;11.616;2023-05-07T07:41:41;5.00;;;2.87;;
9224;SDS011;4647;48.072;11.616;2023-05-07T07:44:09;5.07;;;2.80;;
9224;SDS011;4647;48.072;11.616;2023-05-07T07:46:38;4.10;;;2.90;;
9224;SDS011;4647;48.072;11.616;2023-05-07T07:49:09;4.27;;;3.10;;
9224;SDS011;4647;48.072;11.616;2023-05-07T07:51:37;3.93;;;3.10;;
9224;SDS011;4647;48.072;11.616;2023-05-07T07:54:06;3.77;;;2.90;;
9224;SDS011;4647;48.072;11.616;2023-05-07T07:56:34;4.13;;;2.73;;
9224;SDS011;4647;48.072;11.616;2023-05-07T07:59:03;3.17;;;2.60;;
9224;SDS011;4647;48.072;11.616;2023-05-07T08:01:31;3.97;;;2.97;;
9224;SDS011;4647;48.072;11.616;2023-05-07T08:04:00;3.43;;;2.77;;
9224;SDS011;4647;48.072;11.616;2023-05-07T08:06:33;5.23;;;2.80;;
9224;SDS011;4647;48.072;11.616;2023-05-07T08:09:02;3.83;;;3.00;;
9224;SDS011;4647;48.072;11.616;2023-05-07T08:11:31;3.73;;;2.90;;
9224;SDS011;4647;48.072;11.616;2023-05-07T08:13:59;6.87;;;3.10;;
9224;SDS011;4647;48.072;11.616;2023-05-07T08:16:28;4.43;;;2.80;;
9224;SDS011;4647;48.072;11.616;2023-05-07T08:18:57;3.47;;;3.00;;
9224;SDS011;4647;48.072;11.616;2023-05-07T08:21:25;4.47;;;2.70;;
9224;SDS011;4647;48.072;11.616;2023-05-07T08:23:58;5.53;;;3.20;;
9224;SDS011;4647;48.072;11.616;2023-05-07T08:26:27;3.57;;;2.73;;
9224;SDS011;4647;48.072;11.616;2023-05-07T08:28:55;5.00;;;3.00;;
9224;SDS011;4647;48.072;11.616;2023-05-07T08:31:24;4.13;;;3.10;;
9224;SDS011;4647;48.072;11.616;2023-05-07T08:33:52;5.53;;;3.20;;
9224;SDS011;4647;48.072;11.616;2023-05-07T08:36:20;3.53;;;3.03;;
9224;SDS011;4647;48.072;11.616;2023-05-07T08:38:49;5.17;;;3.00;;
9224;SDS011;4647;48.072;11.616;2023-05-07T08:41:20;3.93;;;3.20;;
9224;SDS011;4647;48.072;11.616;2023-05-07T08:43:49;5.30;;;2.90;;
9224;SDS011;4647;48.072;11.616;2023-05-07T08:46:19;6.40;;;3.53;;
9224;SDS011;4647;48.072;11.616;2023-05-07T08:48:48;5.27;;;3.50;;
9224;SDS011;4647;48.072;11.616;2023-05-07T08:51:19;4.77;;;3.07;;
9224;SDS011;4647;48.072;11.616;2023-05-07T08:53:49;4.30;;;3.20;;
9224;SDS011;4647;48.072;11.616;2023-05-07T08:56:20;5.90;;;2.90;;
9224;SDS011;4647;48.072;11.616;2023-05-07T08:58:49;3.93;;;2.80;;
9224;SDS011;4647;48.072;11.616;2023-05-07T09:01:21;4.53;;;3.10;;
9224;SDS011;4647;48.072;11.616;2023-05-07T09:03:50;3.63;;;2.73;;
9224;SDS011;4647;48.072;11.616;2023-05-07T09:06:19;3.70;;;2.90;;
9224;SDS011;4647;48.072;11.616;2023-05-07T09:08:52;3.37;;;2.67;;
9224;SDS011;4647;48.072;11.616;2023-05-07T09:11:26;3.20;;;2.63;;
9224;SDS011;4647;48.072;11.616;2023-05-07T09:13:55;8.60;;;3.43;;
9224;SDS011;4647;48.072;11.616;2023-05-07T09:16:26;3.60;;;2.87;;
9224;SDS011;4647;48.072;11.616;2023-05-07T09:18:55;5.63;;;2.93;;
9224;SDS011;4647;48.072;11.616;2023-05-07T09:21:26;4.63;;;2.70;;
9224;SDS011;4647;48.072;11.616;2023-05-07T09:23:55;4.07;;;2.87;;
9224;SDS011;4647;48.072;11.616;2023-05-07T09:26:26;6.43;;;2.50;;
9224;SDS011;4647;48.072;11.616;2023-05-07T09:28:56;3.40;;;2.77;;
9224;SDS011;4647;48.072;11.616;2023-05-07T09:31:24;3.03;;;2.37;;
9224;SDS011;4647;48.072;11.616;2023-05-07T09:33:54;4.00;;;2.60;;
9224;SDS011;4647;48.072;11.616;2023-05-07T09:36:22;3.70;;;2.70;;
9224;SDS011;4647;48.072;11.616;2023-05-07T09:38:51;4.73;;;2.60;;
9224;SDS011;4647;48.072;11.616;2023-05-07T09:41:19;5.20;;;2.80;;
9224;SDS011;4647;48.072;11.616;2023-05-07T09:43:53;6.03;;;2.70;;
9224;SDS011;4647;48.072;11.616;2023-05-07T09:46:25;3.07;;;2.40;;
9224;SDS011;4647;48.072;11.616;2023-05-07T09:48:57;3.00;;;2.70;;
9224;SDS011;4647;48.072;11.616;2023-05-07T09:51:28;3.60;;;2.90;;
9224;SDS011;4647;48.072;11.616;2023-05-07T09:53:57;2.90;;;2.33;;
9224;SDS011;4647;48.072;11.616;2023-05-07T09:56:29;5.93;;;2.77;;
9224;SDS011;4647;48.072;11.616;2023-05-07T09:59:01;4.07;;;2.30;;
9224;SDS011;4647;48.072;11.616;2023-05-07T10:01:31;3.03;;;2.50;;
9224;SDS011;4647;48.072;11.616;2023-05-07T10:04:01;3.53;;;2.70;;
9224;SDS011;4647;48.072;11.616;2023-05-07T10:06:30;4.33;;;2.43;;
9224;SDS011;4647;48.072;11.616;2023-05-07T10:08:58;4.40;;;2.30;;
9224;SDS011;4647;48.072;11.616;2023-05-07T10:11:27;4.87;;;2.90;;
9224;SDS011;4647;48.072;11.616;2023-05-07T10:13:56;4.23;;;2.60;;
9224;SDS011;4647;48.072;11.616;2023-05-07T10:16:29;5.07;;;2.40;;
9224;SDS011;4647;48.072;11.616;2023-05-07T10:19:01;4.37;;;2.57;;
9224;SDS011;4647;48.072;11.616;2023-05-07T10:21:31;2.90;;;2.00;;
9224;SDS011;4647;48.072;11.616;2023-05-07T10:24:04;4.20;;;2.20;;
9224;SDS011;4647;48.072;11.616;2023-05-07T10:26:39;4.50;;;2.43;;
9224;SDS011;4647;48.072;11.616;2023-05-07T10:29:11;2.60;;;2.30;;
9224;SDS011;4647;48.072;11.616;2023-05-07T10:31:50;3.77;;;2.43;;
9224;SDS011;4647;48.072;11.616;2023-05-07T10:34:24;6.43;;;2.50;;
9224;SDS011;4647;48.072;11.616;2023-05-07T10:36:57;2.90;;;2.60;;
9224;SDS011;4647;48.072;11.616;2023-05-07T10:39:26;3.47;;;2.60;;
9224;SDS011;4647;48.072;11.616;2023-05-07T10:41:55;3.17;;;2.53;;
9224;SDS011;4647;48.072;11.616;2023-05-07T10:44:26;2.83;;;2.50;;
9224;SDS011;4647;48.072;11.616;2023-05-07T10:47:08;8.97;;;3.10;;
9224;SDS011;4647;48.072;11.616;2023-05-07T10:52:36;3.63;;;2.77;;
9224;SDS011;4647;48.072;11.616;2023-05-07T10:55:20;3.57;;;2.70;;
9224;SDS011;4647;48.072;11.616;2023-05-07T10:57:50;4.53;;;2.50;;
9224;SDS011;4647;48.072;11.616;2023-05-07T11:03:16;3.33;;;2.30;;
9224;SDS011;4647;48.072;11.616;2023-05-07T11:05:47;2.80;;;2.50;;
9224;SDS011;4647;48.072;11.616;2023-05-07T11:14:27;3.83;;;2.50;;
9224;SDS011;4647;48.072;11.616;2023-05-07T11:17:11;3.07;;;2.30;;
9224;SDS011;4647;48.072;11.616;2023-05-07T11:19:52;3.40;;;2.47;;
9224;SDS011;4647;48.072;11.616;2023-05-07T11:22:35;4.60;;;2.40;;
9224;SDS011;4647;48.072;11.616;2023-05-07T11:25:06;4.43;;;2.23;;
9224;SDS011;4647;48.072;11.616;2023-05-07T11:27:35;3.37;;;2.37;;
9224;SDS011;4647;48.072;11.616;2023-05-07T11:30:04;4.17;;;2.30;;
9224;SDS011;4647;48.072;11.616;2023-05-07T11:32:34;7.63;;;2.60;;
9224;SDS011;4647;48.072;11.616;2023-05-07T11:35:06;2.77;;;2.40;;
9224;SDS011;4647;48.072;11.616;2023-05-07T11:37:35;4.33;;;2.60;;
9224;SDS011;4647;48.072;11.616;2023-05-07T11:40:07;4.07;;;2.67;;
9224;SDS011;4647;48.072;11.616;2023-05-07T11:42:39;3.87;;;2.50;;
9224;SDS011;4647;48.072;11.616;2023-05-07T11:45:08;3.30;;;2.30;;
9224;SDS011;4647;48.072;11.616;2023-05-07T11:47:37;3.47;;;2.43;;
9224;SDS011;4647;48.072;11.616;2023-05-07T11:50:09;4.37;;;2.70;;
9224;SDS011;4647;48.072;11.616;2023-05-07T11:52:37;3.23;;;2.43;;
9224;SDS011;4647;48.072;11.616;2023-05-07T11:55:06;2.43;;;2.23;;
9224;SDS011;4647;48.072;11.616;2023-05-07T11:57:35;3.70;;;3.13;;
9224;SDS011;4647;48.072;11.616;2023-05-07T12:00:05;4.57;;;3.10;;
9224;SDS011;4647;48.072;11.616;2023-05-07T12:02:34;3.37;;;3.07;;
9224;SDS011;4647;48.072;11.616;2023-05-07T12:05:04;3.20;;;2.70;;
9224;SDS011;4647;48.072;11.616;2023-05-07T12:07:35;3.60;;;2.80;;
9224;SDS011;4647;48.072;11.616;2023-05-07T12:10:04;3.73;;;3.10;;
9224;SDS011;4647;48.072;11.616;2023-05-07T12:12:37;6.93;;;3.60;;
9224;SDS011;4647;48.072;11.616;2023-05-07T12:15:07;5.03;;;2.63;;
9224;SDS011;4647;48.072;11.616;2023-05-07T12:17:38;4.90;;;3.10;;
9224;SDS011;4647;48.072;11.616;2023-05-07T12:20:08;6.83;;;3.20;;
9224;SDS011;4647;48.072;11.616;2023-05-07T12:22:41;7.07;;;3.00;;
9224;SDS011;4647;48.072;11.616;2023-05-07T12:25:09;4.23;;;3.33;;
9224;SDS011;4647;48.072;11.616;2023-05-07T12:27:40;5.87;;;3.00;;
9224;SDS011;4647;48.072;11.616;2023-05-07T12:30:09;3.30;;;3.00;;
9224;SDS011;4647;48.072;11.616;2023-05-07T12:32:39;8.37;;;3.73;;
9224;SDS011;4647;48.072;11.616;2023-05-07T12:35:08;4.13;;;3.20;;
9224;SDS011;4647;48.072;11.616;2023-05-07T12:37:36;3.70;;;3.10;;
9224;SDS011;4647;48.072;11.616;2023-05-07T12:40:09;4.03;;;3.10;;
9224;SDS011;4647;48.072;11.616;2023-05-07T12:42:39;4.83;;;2.83;;
9224;SDS011;4647;48.072;11.616;2023-05-07T12:45:10;6.53;;;3.40;;
9224;SDS011;4647;48.072;11.616;2023-05-07T12:47:39;4.90;;;3.40;;
9224;SDS011;4647;48.072;11.616;2023-05-07T12:50:11;5.13;;;3.50;;
9224;SDS011;4647;48.072;11.616;2023-05-07T12:52:40;4.13;;;3.13;;
9224;SDS011;4647;48.072;11.616;2023-05-07T12:55:12;6.67;;;3.20;;
9224;SDS011;4647;48.072;11.616;2023-05-07T12:57:43;4.50;;;3.43;;
9224;SDS011;4647;48.072;11.616;2023-05-07T13:00:14;4.87;;;3.10;;
9224;SDS011;4647;48.072;11.616;2023-05-07T13:02:43;2.90;;;2.60;;
9224;SDS011;4647;48.072;11.616;2023-05-07T13:05:13;3.53;;;2.70;;
9224;SDS011;4647;48.072;11.616;2023-05-07T13:07:51;4.07;;;2.90;;
9224;SDS011;4647;48.072;11.616;2023-05-07T13:10:24;3.33;;;2.97;;
9224;SDS011;4647;48.072;11.616;2023-05-07T13:12:53;3.43;;;3.07;;
9224;SDS011;4647;48.072;11.616;2023-05-07T13:15:21;3.17;;;2.60;;
9224;SDS011;4647;48.072;11.616;2023-05-07T13:17:52;4.13;;;3.00;;
9224;SDS011;4647;48.072;11.616;2023-05-07T13:20:20;3.73;;;3.33;;
9224;SDS011;4647;48.072;11.616;2023-05-07T13:22:49;4.70;;;3.23;;
9224;SDS011;4647;48.072;11.616;2023-05-07T13:25:17;4.90;;;3.60;;
9224;SDS011;4647;48.072;11.616;2023-05-07T13:27:48;3.83;;;2.97;;
9224;SDS011;4647;48.072;11.616;2023-05-07T13:30:17;8.23;;;3.20;;
9224;SDS011;4647;48.072;11.616;2023-05-07T13:32:45;4.17;;;2.83;;
9224;SDS011;4647;48.072;11.616;2023-05-07T13:35:15;6.20;;;2.80;;
9224;SDS011;4647;48.072;11.616;2023-05-07T13:37:44;4.57;;;3.10;;
9224;SDS011;4647;48.072;11.616;2023-05-07T13:40:13;4.97;;;3.10;;
9224;SDS011;4647;48.072;11.616;2023-05-07T13:42:41;4.43;;;3.50;;
9224;SDS011;4647;48.072;11.616;2023-05-07T13:45:12;3.20;;;2.90;;
9224;SDS011;4647;48.072;11.616;2023-05-07T13:47:41;3.67;;;3.20;;
9224;SDS011;4647;48.072;11.616;2023-05-07T13:50:11;3.73;;;3.00;;
9224;SDS011;4647;48.072;11.616;2023-05-07T13:52:41;3.20;;;2.53;;
9224;SDS011;4647;48.072;11.616;2023-05-07T13:55:15;4.27;;;3.33;;
9224;SDS011;4647;48.072;11.616;2023-05-07T13:57:44;6.93;;;3.07;;
9224;SDS011;4647;48.072;11.616;2023-05-07T14:00:15;4.67;;;3.30;;
9224;SDS011;4647;48.072;11.616;2023-05-07T14:02:44;4.13;;;3.43;;
9224;SDS011;4647;48.072;11.616;2023-05-07T14:05:12;3.57;;;3.00;;
9224;SDS011;4647;48.072;11.616;2023-05-07T14:07:41;2.60;;;2.40;;
9224;SDS011;4647;48.072;11.616;2023-05-07T14:10:10;3.93;;;2.57;;
9224;SDS011;4647;48.072;11.616;2023-05-07T14:12:39;2.70;;;2.50;;
9224;SDS011;4647;48.072;11.616;2023-05-07T14:15:07;3.90;;;2.73;;
9224;SDS011;4647;48.072;11.616;2023-05-07T14:17:39;3.30;;;2.87;;
9224;SDS011;4647;48.072;11.616;2023-05-07T14:20:08;3.13;;;2.60;;
9224;SDS011;4647;48.072;11.616;2023-05-07T14:22:37;5.10;;;3.00;;
9224;SDS011;4647;48.072;11.616;2023-05-07T14:25:07;4.20;;;2.60;;
9224;SDS011;4647;48.072;11.616;2023-05-07T14:27:36;3.80;;;2.70;;
9224;SDS011;4647;48.072;11.616;2023-05-07T14:30:05;5.40;;;2.47;;
9224;SDS011;4647;48.072;11.616;2023-05-07T14:32:35;4.10;;;2.50;;
9224;SDS011;4647;48.072;11.616;2023-05-07T14:35:07;2.80;;;2.43;;
9224;SDS011;4647;48.072;11.616;2023-05-07T14:37:36;2.57;;;2.37;;
9224;SDS011;4647;48.072;11.616;2023-05-07T14:40:05;2.80;;;2.57;;
9224;SDS011;4647;48.072;11.616;2023-05-07T14:42:34;4.50;;;2.60;;
9224;SDS011;4647;48.072;11.616;2023-05-07T14:45:04;5.40;;;2.63;;
9224;SDS011;4647;48.072;11.616;2023-05-07T14:47:33;2.60;;;2.37;;
9224;SDS011;4647;48.072;11.616;2023-05-07T14:50:01;3.47;;;2.50;;
9224;SDS011;4647;48.072;11.616;2023-05-07T14:52:32;4.37;;;2.57;;
9224;SDS011;4647;48.072;11.616;2023-05-07T14:55:01;2.67;;;2.00;;
9224;SDS011;4647;48.072;11.616;2023-05-07T14:57:29;3.20;;;2.30;;
9224;SDS011;4647;48.072;11.616;2023-05-07T15:00:00;4.10;;;2.40;;
9224;SDS011;4647;48.072;11.616;2023-05-07T15:02:29;3.20;;;2.57;;
9224;SDS011;4647;48.072;11.616;2023-05-07T15:04:58;3.63;;;2.40;;
9224;SDS011;4647;48.072;11.616;2023-05-07T15:07:27;2.57;;;2.30;;
9224;SDS011;4647;48.072;11.616;2023-05-07T15:10:00;3.70;;;2.80;;
9224;SDS011;4647;48.072;11.616;2023-05-07T15:12:28;4.07;;;2.57;;
9224;SDS011;4647;48.072;11.616;2023-05-07T15:14:57;3.13;;;2.70;;
9224;SDS011;4647;48.072;11.616;2023-05-07T15:17:25;4.87;;;3.07;;
9224;SDS011;4647;48.072;11.616;2023-05-07T15:19:53;3.70;;;2.60;;
9224;SDS011;4647;48.072;11.616;2023-05-07T15:22:22;4.17;;;2.50;;
9224;SDS011;4647;48.072;11.616;2023-05-07T15:24:51;10.37;;;2.53;;
9224;SDS011;4647;48.072;11.616;2023-05-07T15:27:22;5.70;;;2.57;;
9224;SDS011;4647;48.072;11.616;2023-05-07T15:29:51;2.73;;;2.20;;